createdAt,value
2022-11-19T00:04:59.111Z,3.34
2022-11-19T00:10:02.052Z,3.34
2022-11-19T00:15:09.231Z,3.34
2022-11-19T00:20:14.448Z,3.34
2022-11-19T00:25:17.403Z,3.33
2022-11-19T00:30:46.366Z,3.34
2022-11-19T00:35:43.682Z,3.34
2022-11-19T00:40:46.649Z,3.33
2022-11-19T00:45:50.433Z,3.30
2022-11-19T00:50:53.426Z,3.28
2022-11-19T00:56:00.219Z,3.25
2022-11-19T01:01:04.305Z,3.25
2022-11-19T01:06:08.953Z,3.26
2022-11-19T01:11:14.850Z,3.24
2022-11-19T01:16:22.070Z,3.26
2022-11-19T01:21:27.696Z,3.26
2022-11-19T01:26:31.143Z,3.28
2022-11-19T01:31:34.143Z,3.27
2022-11-19T01:36:37.091Z,3.25
2022-11-19T01:41:40.004Z,3.24
2022-11-19T01:46:43.020Z,3.23
2022-11-19T01:51:55.941Z,3.23
2022-11-19T01:57:06.332Z,3.22
2022-11-19T02:02:09.683Z,3.20
2022-11-19T02:07:13.729Z,3.18
2022-11-19T02:12:27.593Z,3.15
2022-11-19T02:17:36.219Z,3.16
2022-11-19T02:23:21.442Z,3.15
2022-11-19T02:28:30.473Z,3.12
2022-11-19T02:33:45.250Z,3.11
2022-11-19T02:39:07.023Z,3.10
2022-11-19T02:44:48.735Z,3.08
2022-11-19T02:49:57.073Z,3.03
2022-11-19T02:55:04.407Z,3.01
2022-11-19T03:00:27.792Z,2.99
2022-11-19T03:05:34.182Z,3.00
2022-11-19T03:11:06.272Z,3.01
2022-11-19T03:16:36.908Z,3.02
2022-11-19T03:21:50.557Z,3.00
2022-11-19T03:27:16.813Z,2.99
2022-11-19T03:32:22.298Z,2.98
2022-11-19T03:37:28.589Z,3.00
2022-11-19T03:42:31.755Z,3.01
2022-11-19T03:47:38.297Z,3.00
2022-11-19T03:52:43.294Z,2.98
2022-11-19T03:57:46.357Z,2.98
2022-11-19T04:02:49.302Z,2.97
2022-11-19T04:07:52.315Z,2.95
2022-11-19T04:12:55.220Z,2.98
2022-11-19T04:17:58.151Z,3.02
2022-11-19T04:23:01.103Z,3.07
2022-11-19T04:28:04.282Z,3.06
2022-11-19T04:33:07.271Z,3.07
2022-11-19T04:38:10.174Z,3.10
2022-11-19T04:43:13.209Z,3.09
2022-11-19T04:48:16.203Z,3.03
2022-11-19T04:53:19.129Z,2.96
2022-11-19T04:58:22.143Z,2.92
2022-11-19T05:03:25.167Z,2.93
2022-11-19T05:08:28.289Z,2.92
2022-11-19T05:13:31.291Z,2.93
2022-11-19T05:18:34.214Z,2.95
2022-11-19T05:23:37.255Z,2.94
2022-11-19T05:28:40.398Z,2.92
2022-11-19T05:33:43.512Z,2.95
2022-11-19T05:38:46.534Z,3.01
2022-11-19T05:43:49.460Z,3.03
2022-11-19T05:48:52.410Z,3.05
2022-11-19T05:53:55.396Z,3.01
2022-11-19T05:58:58.346Z,2.96
2022-11-19T06:04:01.361Z,2.95
2022-11-19T06:09:04.767Z,2.98
2022-11-19T06:14:08.234Z,2.98
2022-11-19T06:19:11.646Z,2.98
2022-11-19T06:24:14.755Z,2.99
2022-11-19T06:29:18.959Z,3.01
2022-11-19T06:34:22.200Z,3.02
2022-11-19T06:39:25.144Z,3.02
2022-11-19T06:44:28.156Z,3.04
2022-11-19T06:49:31.065Z,3.04
2022-11-19T06:54:35.781Z,3.04
2022-11-19T06:59:40.687Z,3.04
2022-11-19T07:04:43.615Z,3.03
2022-11-19T07:09:46.515Z,3.04
2022-11-19T07:14:49.537Z,3.06
2022-11-19T07:19:55.943Z,3.05
2022-11-19T07:24:58.951Z,3.06
2022-11-19T07:30:03.113Z,3.04
2022-11-19T07:35:06.780Z,3.03
2022-11-19T07:40:11.266Z,3.01
2022-11-19T07:45:14.215Z,3.01
2022-11-19T07:50:17.870Z,3.00
2022-11-19T07:55:20.897Z,2.99
2022-11-19T08:00:24.596Z,2.97
2022-11-19T08:05:27.546Z,2.96
2022-11-19T08:10:31.966Z,2.97
2022-11-19T08:15:35.059Z,2.99
2022-11-19T08:20:45.616Z,3.01
2022-11-19T08:25:48.608Z,3.04
2022-11-19T08:30:51.588Z,3.05
2022-11-19T08:35:56.002Z,3.05
2022-11-19T08:41:17.461Z,3.05
2022-11-19T08:46:20.647Z,3.06
2022-11-19T08:51:23.882Z,3.08
2022-11-19T08:56:26.977Z,3.09
2022-11-19T09:01:30.244Z,3.12
2022-11-19T09:06:36.124Z,3.14
2022-11-19T09:11:42.638Z,3.17
2022-11-19T09:16:46.014Z,3.19
2022-11-19T09:21:49.534Z,3.20
2022-11-19T09:26:53.785Z,3.23
2022-11-19T09:31:57.866Z,3.25
2022-11-19T09:37:01.420Z,3.28
2022-11-19T09:42:22.763Z,3.30
2022-11-19T09:47:40.131Z,3.32
2022-11-19T09:52:47.920Z,3.34
2022-11-19T09:57:54.859Z,3.37
2022-11-19T10:03:01.307Z,3.38
2022-11-19T10:08:31.589Z,3.39
2022-11-19T10:14:07.743Z,3.41
2022-11-19T10:19:38.130Z,3.45
2022-11-19T10:24:47.744Z,3.46
2022-11-19T10:29:56.667Z,3.45
2022-11-19T10:35:09.180Z,3.46
2022-11-19T10:40:19.830Z,3.51
2022-11-19T10:45:28.739Z,3.57
2022-11-19T10:50:31.780Z,3.61
2022-11-19T10:55:41.100Z,3.66
2022-11-19T11:00:44.566Z,3.70
2022-11-19T11:06:03.605Z,3.80
2022-11-19T11:11:06.666Z,3.86
2022-11-19T11:16:17.079Z,3.86
2022-11-19T11:21:36.800Z,3.88
2022-11-19T11:26:40.736Z,3.85
2022-11-19T11:31:47.307Z,3.79
2022-11-19T11:36:50.586Z,3.77
2022-11-19T11:42:05.323Z,3.77
2022-11-19T11:47:18.777Z,3.77
2022-11-19T11:52:28.645Z,3.76
2022-11-19T11:57:50.449Z,3.73
2022-11-19T12:03:04.195Z,3.72
2022-11-19T12:08:14.239Z,3.75
2022-11-19T12:13:30.633Z,3.75
2022-11-19T12:19:02.196Z,3.73
2022-11-19T12:24:17.308Z,3.67
2022-11-19T12:29:50.667Z,3.64
2022-11-19T12:35:01.505Z,3.65
2022-11-19T12:40:16.812Z,3.65
2022-11-19T12:45:39.858Z,3.66
2022-11-19T12:50:55.607Z,3.70
2022-11-19T12:56:19.743Z,3.69
2022-11-19T13:01:28.442Z,3.71
2022-11-19T13:06:41.180Z,3.74
2022-11-19T13:11:53.673Z,3.77
2022-11-19T13:16:59.036Z,3.78
2022-11-19T13:22:16.284Z,3.71
2022-11-19T13:27:23.829Z,3.68
2022-11-19T13:32:31.488Z,3.64
2022-11-19T13:38:11.507Z,3.63
2022-11-19T13:43:40.791Z,3.61
2022-11-19T13:48:58.160Z,3.56
2022-11-19T13:54:04.351Z,3.52
2022-11-19T13:59:09.161Z,3.49
2022-11-19T14:04:40.049Z,3.47
2022-11-19T14:10:22.220Z,3.49
2022-11-19T14:16:05.265Z,3.48
2022-11-19T14:21:45.187Z,3.48
2022-11-19T14:27:01.818Z,3.49
2022-11-19T14:32:07.059Z,3.52
2022-11-19T14:37:25.179Z,3.54
2022-11-19T14:42:28.390Z,3.53
2022-11-19T14:47:38.914Z,3.51
2022-11-19T14:53:01.173Z,3.46
2022-11-19T14:58:24.803Z,3.44
2022-11-19T15:03:28.673Z,3.48
2022-11-19T15:08:48.818Z,3.46
2022-11-19T15:14:28.482Z,3.41
2022-11-19T15:19:45.842Z,3.39
2022-11-19T15:25:05.712Z,3.36
2022-11-19T15:30:20.852Z,3.37
2022-11-19T15:35:54.584Z,3.34
2022-11-19T15:41:01.271Z,3.29
2022-11-19T15:46:10.917Z,3.27
2022-11-19T15:51:16.605Z,3.27
2022-11-19T15:56:19.626Z,3.27
2022-11-19T16:01:23.414Z,3.22
2022-11-19T16:06:31.796Z,3.17
2022-11-19T16:11:56.973Z,3.14
2022-11-19T16:17:33.389Z,3.16
2022-11-19T16:22:46.202Z,3.11
2022-11-19T16:27:49.240Z,3.10
2022-11-19T16:32:55.961Z,3.09
2022-11-19T16:38:01.702Z,3.04
2022-11-19T16:43:05.367Z,2.98
2022-11-19T16:48:47.039Z,2.91
2022-11-19T16:53:58.475Z,2.81
2022-11-19T16:59:04.562Z,2.74
2022-11-19T17:04:10.544Z,2.69
2022-11-19T17:09:29.267Z,2.65
2022-11-19T17:14:34.852Z,2.62
2022-11-19T17:19:37.788Z,2.59
2022-11-19T17:24:43.670Z,2.64
2022-11-19T17:29:46.663Z,2.66
2022-11-19T17:34:50.347Z,2.63
2022-11-19T17:39:53.291Z,2.60
2022-11-19T17:44:56.201Z,2.58
2022-11-19T17:49:59.088Z,2.58
2022-11-19T17:55:14.125Z,2.55
2022-11-19T18:00:17.408Z,2.54
2022-11-19T18:05:23.396Z,2.53
2022-11-19T18:10:26.504Z,2.51
2022-11-19T18:15:30.781Z,2.47
2022-11-19T18:20:34.038Z,2.45
2022-11-19T18:25:37.089Z,2.43
2022-11-19T18:30:40.217Z,2.46
2022-11-19T18:35:43.254Z,2.54
2022-11-19T18:40:49.465Z,2.54
2022-11-19T18:45:52.425Z,2.49
2022-11-19T18:50:55.447Z,2.43
2022-11-19T18:55:58.550Z,2.35
2022-11-19T19:01:06.456Z,2.27
2022-11-19T19:06:10.087Z,2.18
2022-11-19T19:11:31.839Z,2.11
2022-11-19T19:16:35.185Z,2.07
2022-11-19T19:21:38.388Z,2.03
2022-11-19T19:26:41.884Z,1.99
2022-11-19T19:31:44.883Z,1.96
2022-11-19T19:36:52.945Z,1.94
2022-11-19T19:41:56.503Z,3.32
2022-11-19T19:46:59.683Z,7.28
2022-11-19T19:52:02.896Z,8.40
2022-11-19T19:57:07.999Z,6.55
2022-11-19T20:02:11.280Z,5.38
2022-11-19T20:07:14.871Z,4.58
2022-11-19T20:12:17.980Z,3.92
2022-11-19T20:17:21.379Z,3.40
2022-11-19T20:22:24.455Z,2.97
2022-11-19T20:27:27.632Z,2.62
2022-11-19T20:32:30.779Z,2.34
2022-11-19T20:37:33.996Z,2.13
2022-11-19T20:42:55.828Z,1.96
2022-11-19T20:47:58.884Z,1.82
2022-11-19T20:53:02.202Z,1.72
2022-11-19T20:58:06.087Z,1.64
2022-11-19T21:03:10.224Z,1.55
2022-11-19T21:08:14.060Z,1.49
2022-11-19T21:13:17.122Z,1.42
2022-11-19T21:18:24.057Z,1.38
2022-11-19T21:23:28.503Z,1.31
2022-11-19T21:28:32.248Z,1.25
2022-11-19T21:33:35.482Z,1.16
2022-11-19T21:38:39.578Z,1.10
2022-11-19T21:43:42.604Z,1.05
2022-11-19T21:48:45.537Z,1.05
2022-11-19T21:53:48.938Z,1.06
2022-11-19T21:58:52.049Z,1.06
2022-11-19T22:03:54.989Z,1.05
2022-11-19T22:08:57.963Z,1.06
2022-11-19T22:14:07.057Z,1.04
2022-11-19T22:19:13.979Z,1.00
2022-11-19T22:24:17.009Z,0.98
2022-11-19T22:29:20.410Z,0.96
2022-11-19T22:34:23.604Z,0.95
2022-11-19T22:39:26.617Z,0.94
2022-11-19T22:44:29.553Z,0.95
2022-11-19T22:49:33.240Z,0.94
2022-11-19T22:54:41.192Z,0.93
2022-11-19T22:59:44.811Z,0.92
2022-11-19T23:04:47.749Z,0.88
2022-11-19T23:09:50.692Z,0.83
2022-11-19T23:14:53.697Z,0.78
2022-11-19T23:19:59.177Z,0.75
2022-11-19T23:25:06.685Z,0.72
2022-11-19T23:30:10.049Z,0.69
2022-11-19T23:35:12.999Z,0.65
2022-11-19T23:40:16.303Z,0.62
2022-11-19T23:45:19.264Z,0.62
2022-11-19T23:50:22.256Z,0.58
2022-11-19T23:55:25.259Z,0.57
